createdAt,value
2018-07-21T00:00:33.529Z,14.1
2018-07-21T00:01:33.609Z,14.3
2018-07-21T00:02:33.650Z,14.1
2018-07-21T00:03:33.731Z,14.3
2018-07-21T00:04:33.757Z,14.1
2018-07-21T00:06:33.882Z,14.3
2018-07-21T00:12:34.288Z,14.1
2018-07-21T00:13:34.618Z,14.3
2018-07-21T00:14:34.428Z,14.1
2018-07-21T00:15:34.474Z,14.3
2018-07-21T00:16:34.548Z,14.1
2018-07-21T00:27:35.220Z,14
2018-07-21T00:43:36.154Z,13.9
2018-07-21T00:48:36.477Z,13.8
2018-07-21T00:51:36.673Z,13.6
2018-07-21T00:58:37.201Z,13.5
2018-07-21T00:59:37.172Z,13.6
2018-07-21T01:00:37.212Z,13.5
2018-07-21T01:08:38.319Z,13.6
2018-07-21T01:10:38.448Z,13.5
2018-07-21T01:23:39.216Z,13.4
2018-07-21T01:40:40.577Z,13.3
2018-07-21T01:47:40.689Z,13.1
2018-07-21T01:48:40.866Z,13.3
2018-07-21T02:01:41.593Z,13.4
2018-07-21T02:02:41.640Z,13.3
2018-07-21T02:03:41.748Z,13.4
2018-07-21T02:06:41.889Z,13.5
2018-07-21T02:29:43.259Z,13.4
2018-07-21T02:49:47.320Z,13.3
2018-07-21T02:53:51.301Z,13.1
2018-07-21T02:59:57.224Z,13
2018-07-21T03:07:04.190Z,12.9
2018-07-21T03:18:08.581Z,13
2018-07-21T03:37:09.700Z,12.9
2018-07-21T03:38:09.755Z,13
2018-07-21T03:39:09.827Z,12.9
2018-07-21T03:40:09.881Z,13
2018-07-21T03:45:10.225Z,12.9
2018-07-21T03:46:10.308Z,13
2018-07-21T03:50:10.561Z,13.1
2018-07-21T03:52:10.673Z,13.3
2018-07-21T03:55:10.933Z,13.4
2018-07-21T03:57:10.978Z,13.5
2018-07-21T03:59:11.109Z,13.6
2018-07-21T04:01:11.235Z,13.8
2018-07-21T04:02:11.311Z,13.9
2018-07-21T04:04:11.535Z,14
2018-07-21T04:05:11.498Z,14.1
2018-07-21T04:06:11.558Z,14.3
2018-07-21T04:08:11.775Z,14.4
2018-07-21T04:09:11.663Z,14.5
2018-07-21T04:10:11.725Z,14.6
2018-07-21T04:11:11.793Z,14.7
2018-07-21T04:13:12.042Z,14.9
2018-07-21T04:15:12.032Z,15
2018-07-21T04:16:12.104Z,15.1
2018-07-21T04:18:12.264Z,15.3
2018-07-21T04:22:12.541Z,15.4
2018-07-21T04:25:12.672Z,15.5
2018-07-21T04:31:13.031Z,15.6
2018-07-21T04:35:13.315Z,15.8
2018-07-21T04:38:13.490Z,15.9
2018-07-21T04:40:13.635Z,16
2018-07-21T04:42:13.729Z,16.1
2018-07-21T04:44:13.890Z,16.3
2018-07-21T04:45:13.907Z,16.4
2018-07-21T04:47:14.033Z,16.5
2018-07-21T04:48:14.139Z,16.6
2018-07-21T04:50:14.188Z,16.8
2018-07-21T04:51:14.293Z,16.9
2018-07-21T04:53:14.420Z,17
2018-07-21T04:54:14.500Z,17.1
2018-07-21T04:55:14.528Z,17.2
2018-07-21T04:57:14.622Z,17.4
2018-07-21T04:59:14.741Z,17.5
2018-07-21T05:00:14.822Z,17.6
2018-07-21T05:01:14.865Z,17.8
2018-07-21T05:02:14.925Z,18
2018-07-21T05:03:14.994Z,18.6
2018-07-21T05:04:15.047Z,19.3
2018-07-21T05:05:15.152Z,19.8
2018-07-21T05:06:15.216Z,20
2018-07-21T05:07:15.236Z,20.3
2018-07-21T05:08:15.357Z,20.5
2018-07-21T05:09:15.484Z,20.9
2018-07-21T05:10:15.448Z,21.1
2018-07-21T05:11:15.515Z,21.4
2018-07-21T05:12:15.583Z,21.6
2018-07-21T05:14:15.673Z,21.8
2018-07-21T05:15:15.732Z,22
2018-07-21T05:16:15.817Z,22.4
2018-07-21T05:17:15.854Z,22.8
2018-07-21T05:18:15.908Z,23.1
2018-07-21T05:20:16.034Z,22.9
2018-07-21T05:21:16.134Z,22.6
2018-07-21T05:22:16.199Z,22.5
2018-07-21T05:23:16.265Z,22.4
2018-07-21T05:24:16.349Z,22.1
2018-07-21T05:25:16.352Z,21.9
2018-07-21T05:26:16.452Z,21.8
2018-07-21T05:27:16.525Z,21.6
2018-07-21T05:28:16.540Z,21.5
2018-07-21T05:29:16.630Z,21.4
2018-07-21T05:33:16.859Z,21.2
2018-07-21T05:34:16.935Z,21.1
2018-07-21T05:35:16.997Z,21.2
2018-07-21T05:36:17.070Z,21.5
2018-07-21T05:37:17.120Z,21.9
2018-07-21T05:39:17.271Z,22
2018-07-21T05:40:17.298Z,22.1
2018-07-21T05:41:17.368Z,22.2
2018-07-21T05:43:17.514Z,22.1
2018-07-21T05:44:17.532Z,22
2018-07-21T05:47:17.715Z,22.4
2018-07-21T05:48:17.782Z,23
2018-07-21T05:49:17.837Z,23.4
2018-07-21T05:51:17.958Z,23.3
2018-07-21T05:53:18.107Z,23.4
2018-07-21T05:54:18.177Z,23.3
2018-07-21T05:55:18.242Z,23.1
2018-07-21T05:56:18.287Z,23
2018-07-21T05:57:18.333Z,22.9
2018-07-21T05:59:18.497Z,22.8
2018-07-21T06:02:18.701Z,22.9
2018-07-21T06:07:18.958Z,23
2018-07-21T06:08:19.038Z,23.1
2018-07-21T06:09:19.081Z,23.3
2018-07-21T06:11:19.232Z,23.4
2018-07-21T06:13:19.367Z,23.5
2018-07-21T06:20:19.827Z,23.6
2018-07-21T06:24:20.043Z,23.7
2018-07-21T06:27:20.311Z,23.9
2018-07-21T06:31:20.462Z,24
2018-07-21T06:32:20.503Z,23.9
2018-07-21T06:36:20.748Z,24
2018-07-21T06:39:20.943Z,24.1
2018-07-21T06:41:21.099Z,24.3
2018-07-21T06:44:21.244Z,24.4
2018-07-21T06:46:21.368Z,24.5
2018-07-21T06:48:21.551Z,24.6
2018-07-21T06:50:21.613Z,24.7
2018-07-21T06:52:21.746Z,24.9
2018-07-21T06:53:21.800Z,25
2018-07-21T06:55:21.926Z,25.1
2018-07-21T06:56:21.991Z,25.3
2018-07-21T06:57:22.102Z,25.4
2018-07-21T06:58:22.117Z,25.5
2018-07-21T06:59:22.166Z,25.6
2018-07-21T07:00:22.253Z,25.8
2018-07-21T07:01:22.332Z,25.9
2018-07-21T07:02:22.357Z,26.1
2018-07-21T07:03:22.460Z,26.2
2018-07-21T07:04:22.535Z,26.5
2018-07-21T07:05:22.601Z,26.6
2018-07-21T07:06:22.638Z,26.8
2018-07-21T07:07:22.739Z,26.9
2018-07-21T07:08:22.786Z,27
2018-07-21T07:09:22.798Z,27.1
2018-07-21T07:17:23.323Z,27
2018-07-21T07:20:23.484Z,26.9
2018-07-21T07:21:23.594Z,27
2018-07-21T07:22:23.641Z,27.1
2018-07-21T07:23:23.797Z,27.2
2018-07-21T07:24:23.782Z,27.4
2018-07-21T07:26:23.910Z,27.5
2018-07-21T07:28:24.031Z,27.8
2018-07-21T07:29:24.092Z,28
2018-07-21T07:30:24.283Z,28.1
2018-07-21T07:31:24.218Z,28.3
2018-07-21T07:32:24.332Z,28.4
2018-07-21T07:33:24.382Z,28.5
2018-07-21T07:35:24.595Z,28.7
2018-07-21T07:36:25.345Z,29
2018-07-21T07:37:24.616Z,29.3
2018-07-21T07:38:24.660Z,29.4
2018-07-21T07:39:24.721Z,29.5
2018-07-21T07:40:24.915Z,29.8
2018-07-21T07:41:24.869Z,30.1
2018-07-21T07:42:24.926Z,30.5
2018-07-21T07:43:24.976Z,30.6
2018-07-21T07:44:25.027Z,30.8
2018-07-21T07:47:25.212Z,30.9
2018-07-21T07:48:25.313Z,31
2018-07-21T07:49:25.346Z,31.1
2018-07-21T07:50:25.677Z,31.5
2018-07-21T07:51:26.644Z,32.1
2018-07-21T07:53:28.687Z,31.8
2018-07-21T07:54:29.675Z,31.6
2018-07-21T07:55:30.657Z,31.9
2018-07-21T07:56:31.624Z,32.9
2018-07-21T07:57:32.596Z,33.7
2018-07-21T07:58:33.689Z,34.2
2018-07-21T07:59:34.609Z,34.6
2018-07-21T08:00:35.670Z,35.5
2018-07-21T08:01:36.566Z,36.5
2018-07-21T08:02:37.616Z,37.2
2018-07-21T08:03:38.630Z,38
2018-07-21T08:04:39.548Z,38.7
2018-07-21T08:05:40.578Z,39.5
2018-07-21T08:06:41.616Z,40
2018-07-21T08:07:42.516Z,40.6
2018-07-21T08:08:43.558Z,41.2
2018-07-21T08:09:44.512Z,41.7
2018-07-21T08:10:44.810Z,42.4
2018-07-21T08:11:45.567Z,42.9
2018-07-21T08:12:46.571Z,43.4
2018-07-21T08:13:47.516Z,43.6
2018-07-21T08:15:50.071Z,43.4
2018-07-21T08:16:50.557Z,43
2018-07-21T08:17:50.760Z,42.5
2018-07-21T08:18:52.644Z,41.7
2018-07-21T08:19:52.776Z,41
2018-07-21T08:20:52.898Z,40.4
2018-07-21T08:21:52.891Z,39.7
2018-07-21T08:22:52.922Z,39.2
2018-07-21T08:23:52.969Z,38.9
2018-07-21T08:24:53.045Z,38.4
2018-07-21T08:25:53.235Z,38.1
2018-07-21T08:26:53.778Z,37.9
2018-07-21T08:27:53.192Z,38.5
2018-07-21T08:28:53.274Z,39.2
2018-07-21T08:29:53.377Z,40
2018-07-21T08:30:53.558Z,40.8
2018-07-21T08:31:53.470Z,41.2
2018-07-21T08:32:53.506Z,41.5
2018-07-21T08:33:54.230Z,41.6
2018-07-21T08:34:55.152Z,42.6
2018-07-21T08:35:56.259Z,43.5
2018-07-21T08:36:57.031Z,44.2
2018-07-21T08:37:58.116Z,44.6
2018-07-21T08:38:58.110Z,44.9
2018-07-21T08:39:58.165Z,45.2
2018-07-21T08:41:58.361Z,44.9
2018-07-21T08:42:58.384Z,43.9
2018-07-21T08:43:58.414Z,43.7
2018-07-21T08:44:58.508Z,43.4
2018-07-21T08:45:58.579Z,43.7
2018-07-21T08:46:58.639Z,44.2
2018-07-21T08:47:58.662Z,44.4
2018-07-21T08:48:58.759Z,44.2
2018-07-21T08:49:58.807Z,44.1
2018-07-21T08:50:58.934Z,44.4
2018-07-21T08:51:58.928Z,44.6
2018-07-21T08:52:59.027Z,45
2018-07-21T08:53:59.079Z,45.5
2018-07-21T08:54:59.145Z,45.9
2018-07-21T08:55:59.207Z,46.2
2018-07-21T08:57:59.302Z,46
2018-07-21T08:58:59.376Z,46.4
2018-07-21T08:59:59.440Z,46.9
2018-07-21T09:00:59.519Z,47.4
2018-07-21T09:01:59.537Z,47.5
2018-07-21T09:02:59.595Z,47.6
2018-07-21T09:03:59.647Z,47.7
2018-07-21T09:04:59.710Z,47.9
2018-07-21T09:05:59.806Z,48.1
2018-07-21T09:07:01.079Z,48.4
2018-07-21T09:08:01.435Z,48.6
2018-07-21T09:09:02.226Z,48.9
2018-07-21T09:11:03.990Z,49
2018-07-21T09:12:04.924Z,49.4
2018-07-21T09:13:05.569Z,49.5
2018-07-21T09:14:06.461Z,49.7
2018-07-21T09:15:07.409Z,49.5
2018-07-21T09:16:08.325Z,49.6
2018-07-21T09:17:09.255Z,49.4
2018-07-21T09:18:10.228Z,49.1
2018-07-21T09:19:11.067Z,49.4
2018-07-21T09:20:12.078Z,49.5
2018-07-21T09:21:12.969Z,49.6
2018-07-21T09:22:13.876Z,49
2018-07-21T09:23:14.809Z,48.3
2018-07-21T09:24:15.774Z,47.6
2018-07-21T09:25:16.666Z,46.7
2018-07-21T09:26:17.563Z,45.8
2018-07-21T09:27:18.492Z,45.1
2018-07-21T09:28:19.438Z,45
2018-07-21T09:29:20.346Z,44.4
2018-07-21T09:30:21.275Z,44.2
2018-07-21T09:31:22.186Z,44.5
2018-07-21T09:32:23.175Z,45.2
2018-07-21T09:33:24.077Z,45.9
2018-07-21T09:34:24.968Z,46.4
2018-07-21T09:35:25.899Z,46.7
2018-07-21T09:36:25.969Z,46.9
2018-07-21T09:37:26.915Z,46.4
2018-07-21T09:38:27.818Z,46.1
2018-07-21T09:39:28.748Z,46.2
2018-07-21T09:41:30.617Z,46.1
2018-07-21T09:42:31.605Z,46.5
2018-07-21T09:43:32.532Z,46.6
2018-07-21T09:44:33.528Z,46.7
2018-07-21T09:45:34.464Z,47.1
2018-07-21T09:46:34.515Z,47.6
2018-07-21T09:47:35.507Z,47.9
2018-07-21T09:48:35.584Z,48.3
2018-07-21T09:49:35.574Z,48.6
2018-07-21T09:50:35.772Z,48.9
2018-07-21T09:51:36.730Z,48.7
2018-07-21T09:52:37.781Z,48.3
2018-07-21T09:53:38.728Z,48.4
2018-07-21T09:54:38.725Z,48.7
2018-07-21T09:55:38.865Z,48.6
2018-07-21T09:56:38.863Z,49
2018-07-21T09:57:38.915Z,49.4
2018-07-21T09:58:38.987Z,49
2018-07-21T09:59:39.080Z,48.7
2018-07-21T10:00:39.152Z,48.5
2018-07-21T10:01:39.236Z,48
2018-07-21T10:02:39.251Z,47.1
2018-07-21T10:03:39.318Z,46.4
2018-07-21T10:04:39.393Z,47.1
2018-07-21T10:05:39.483Z,47.6
2018-07-21T10:06:39.528Z,48.3
2018-07-21T10:07:39.598Z,48.6
2018-07-21T10:08:39.631Z,49
2018-07-21T10:09:39.673Z,49.4
2018-07-21T10:10:39.727Z,49.6
2018-07-21T10:11:39.806Z,49.9
2018-07-21T10:12:39.842Z,50
2018-07-21T10:13:39.913Z,49.9
2018-07-21T10:14:39.995Z,50
2018-07-21T10:15:40.027Z,50.1
2018-07-21T10:16:40.112Z,50.2
2018-07-21T10:17:40.212Z,50.5
2018-07-21T10:18:40.236Z,50.6
2018-07-21T10:19:40.287Z,50.9
2018-07-21T10:20:40.355Z,51.1
2018-07-21T10:21:40.480Z,51.2
2018-07-21T10:22:40.517Z,51.4
2018-07-21T10:25:40.713Z,51.1
2018-07-21T10:26:40.717Z,50.6
2018-07-21T10:27:40.774Z,50.8
2018-07-21T10:28:40.883Z,50.5
2018-07-21T10:30:40.995Z,50.2
2018-07-21T10:31:41.043Z,50
2018-07-21T10:32:41.130Z,49.9
2018-07-21T10:33:41.319Z,49.5
2018-07-21T10:34:41.234Z,49.1
2018-07-21T10:35:41.326Z,49
2018-07-21T10:37:41.386Z,48.7
2018-07-21T10:38:41.499Z,48.3
2018-07-21T10:39:41.544Z,47.9
2018-07-21T10:40:41.612Z,47.5
2018-07-21T10:41:41.628Z,47.4
2018-07-21T10:42:41.755Z,47.6
2018-07-21T10:43:41.768Z,48
2018-07-21T10:44:41.831Z,48.4
2018-07-21T10:45:41.897Z,48.6
2018-07-21T10:46:41.975Z,48.7
2018-07-21T10:48:42.093Z,48.4
2018-07-21T10:49:42.177Z,47.6
2018-07-21T10:50:42.279Z,46.9
2018-07-21T10:51:42.290Z,46.2
2018-07-21T10:54:42.462Z,46.6
2018-07-21T10:55:42.518Z,47.1
2018-07-21T10:56:42.586Z,47.9
2018-07-21T10:57:42.634Z,48.7
2018-07-21T10:58:42.768Z,49.4
2018-07-21T10:59:42.804Z,50
2018-07-21T11:00:42.875Z,50.5
2018-07-21T11:01:42.915Z,50.9
2018-07-21T11:02:42.972Z,51.4
2018-07-21T11:03:43.049Z,51.9
2018-07-21T11:04:43.115Z,52.4
2018-07-21T11:06:43.238Z,52.6
2018-07-21T11:07:43.316Z,52.1
2018-07-21T11:08:43.356Z,51.7
2018-07-21T11:09:43.454Z,51.2
2018-07-21T11:10:43.506Z,50.8
2018-07-21T11:11:43.561Z,50.4
2018-07-21T11:12:43.647Z,50.2
2018-07-21T11:13:43.745Z,50
2018-07-21T11:14:43.734Z,49.7
2018-07-21T11:15:43.840Z,50.4
2018-07-21T11:16:43.897Z,50.6
2018-07-21T11:17:43.951Z,50.4
2018-07-21T11:18:44.010Z,50.1
2018-07-21T11:19:44.096Z,50.6
2018-07-21T11:20:44.253Z,51.2
2018-07-21T11:21:45.171Z,50.9
2018-07-21T11:22:46.171Z,49.6
2018-07-21T11:23:47.200Z,48.6
2018-07-21T11:24:47.243Z,48.4
2018-07-21T11:25:47.277Z,48.3
2018-07-21T11:26:47.340Z,49.1
2018-07-21T11:27:47.358Z,50.2
2018-07-21T11:28:47.472Z,51
2018-07-21T11:29:47.495Z,51.6
2018-07-21T11:30:47.569Z,52
2018-07-21T11:31:47.627Z,52.6
2018-07-21T11:32:47.686Z,53.1
2018-07-21T11:33:47.735Z,53.4
2018-07-21T11:35:48.054Z,53.9
2018-07-21T11:36:47.917Z,54.4
2018-07-21T11:37:48.008Z,54.7
2018-07-21T11:38:48.055Z,55
2018-07-21T11:40:48.153Z,54.9
2018-07-21T11:41:48.218Z,54.2
2018-07-21T11:42:48.305Z,53.9
2018-07-21T11:43:48.392Z,53.7
2018-07-21T11:44:48.472Z,54
2018-07-21T11:45:48.497Z,54.2
2018-07-21T11:46:48.553Z,53.5
2018-07-21T11:47:48.615Z,52.9
2018-07-21T11:48:48.682Z,52.4
2018-07-21T11:49:48.717Z,53
2018-07-21T11:50:48.784Z,53.9
2018-07-21T11:51:48.834Z,54.2
2018-07-21T11:52:48.901Z,54.5
2018-07-21T11:53:48.984Z,54.7
2018-07-21T11:54:49.039Z,54.9
2018-07-21T11:56:49.156Z,55.1
2018-07-21T11:57:49.215Z,55
2018-07-21T11:58:49.284Z,54.5
2018-07-21T11:59:49.406Z,54
2018-07-21T12:00:49.467Z,53.3
2018-07-21T12:01:49.545Z,52.6
2018-07-21T12:02:49.601Z,52.2
2018-07-21T12:03:49.622Z,52.5
2018-07-21T12:04:49.695Z,53
2018-07-21T12:05:49.773Z,53.1
2018-07-21T12:06:49.843Z,53.6
2018-07-21T12:07:49.885Z,54
2018-07-21T12:08:49.969Z,54.2
2018-07-21T12:09:50.024Z,54.4
2018-07-21T12:10:50.082Z,54.2
2018-07-21T12:11:50.125Z,54.4
2018-07-21T12:12:50.151Z,54.5
2018-07-21T12:13:50.274Z,54.1
2018-07-21T12:14:50.305Z,53.7
2018-07-21T12:15:50.384Z,53.6
2018-07-21T12:16:50.485Z,53.5
2018-07-21T12:17:50.472Z,53.7
2018-07-21T12:18:50.585Z,54
2018-07-21T12:19:50.822Z,54.1
2018-07-21T12:21:50.903Z,54.2
2018-07-21T12:22:50.975Z,54.5
2018-07-21T12:23:51.074Z,54.7
2018-07-21T12:24:51.151Z,55
2018-07-21T12:26:51.272Z,54.9
2018-07-21T12:28:51.345Z,55.1
2018-07-21T12:29:51.422Z,55.5
2018-07-21T12:30:51.506Z,55.8
2018-07-21T12:31:51.546Z,56
2018-07-21T12:32:51.611Z,56.2
2018-07-21T12:33:51.652Z,56.5
2018-07-21T12:35:51.783Z,56.2
2018-07-21T12:36:51.837Z,55.9
2018-07-21T12:37:51.900Z,55.5
2018-07-21T12:38:51.958Z,55
2018-07-21T12:39:52.035Z,54.2
2018-07-21T12:40:52.078Z,53
2018-07-21T12:41:52.156Z,52.4
2018-07-21T12:42:52.262Z,51.7
2018-07-21T12:43:52.319Z,51.2
2018-07-21T12:44:52.459Z,50.8
2018-07-21T12:45:52.469Z,49.7
2018-07-21T12:46:52.523Z,49
2018-07-21T12:47:52.510Z,48.1
2018-07-21T12:48:52.631Z,47.1
2018-07-21T12:49:52.669Z,46.4
2018-07-21T12:50:52.754Z,45.6
2018-07-21T12:51:52.807Z,45.1
2018-07-21T12:52:52.861Z,44.6
2018-07-21T12:53:52.917Z,44
2018-07-21T12:54:53.005Z,43.4
2018-07-21T12:55:53.052Z,43
2018-07-21T12:56:53.119Z,42.7
2018-07-21T12:57:53.696Z,42.6
2018-07-21T12:59:53.296Z,42.4
2018-07-21T13:01:53.421Z,42.5
2018-07-21T13:02:53.439Z,42.6
2018-07-21T13:04:53.602Z,42.7
2018-07-21T13:05:53.656Z,42.6
2018-07-21T13:06:53.693Z,42.9
2018-07-21T13:07:53.785Z,43.3
2018-07-21T13:08:53.874Z,43.6
2018-07-21T13:09:53.892Z,44
2018-07-21T13:10:53.932Z,44.2
2018-07-21T13:11:53.997Z,44.5
2018-07-21T13:12:54.086Z,44.7
2018-07-21T13:13:54.120Z,45
2018-07-21T13:17:54.367Z,44.7
2018-07-21T13:18:54.463Z,44.4
2018-07-21T13:19:54.568Z,43.9
2018-07-21T13:20:54.606Z,43.5
2018-07-21T13:21:54.665Z,43.1
2018-07-21T13:22:54.695Z,42.7
2018-07-21T13:23:54.760Z,42.4
2018-07-21T13:24:54.810Z,42.1
2018-07-21T13:25:54.860Z,41.9
2018-07-21T13:26:54.925Z,41.6
2018-07-21T13:27:55.007Z,41.4
2018-07-21T13:28:55.044Z,41.1
2018-07-21T13:29:55.143Z,41
2018-07-21T13:30:55.226Z,40.8
2018-07-21T13:32:55.334Z,40.6
2018-07-21T13:35:55.497Z,40.8
2018-07-21T13:37:55.601Z,40.6
2018-07-21T13:44:56.080Z,40.8
2018-07-21T13:45:56.147Z,40.9
2018-07-21T13:47:56.262Z,41
2018-07-21T13:49:56.382Z,41.1
2018-07-21T13:52:56.567Z,41
2018-07-21T13:53:56.716Z,40.9
2018-07-21T13:54:56.707Z,40.8
2018-07-21T13:55:56.724Z,40.6
2018-07-21T13:57:56.843Z,40.5
2018-07-21T13:58:56.901Z,40.4
2018-07-21T13:59:56.962Z,40.2
2018-07-21T14:00:57.064Z,40
2018-07-21T14:01:57.089Z,39.7
2018-07-21T14:02:57.171Z,39.6
2018-07-21T14:03:57.209Z,39.5
2018-07-21T14:04:57.342Z,39.4
2018-07-21T14:05:57.334Z,39.2
2018-07-21T14:07:57.533Z,39.1
2018-07-21T14:08:57.558Z,39
2018-07-21T14:11:57.710Z,38.9
2018-07-21T14:15:57.989Z,38.7
2018-07-21T14:18:58.810Z,38.6
2018-07-21T14:19:58.886Z,38.5
2018-07-21T14:27:59.349Z,38.4
2018-07-21T14:31:59.606Z,38.5
2018-07-21T14:33:59.723Z,38.6
2018-07-21T14:34:59.748Z,38.7
2018-07-21T14:36:59.881Z,38.9
2018-07-21T14:37:59.933Z,39
2018-07-21T14:39:00.157Z,39.1
2018-07-21T14:40:00.076Z,39.4
2018-07-21T14:41:00.118Z,39.6
2018-07-21T14:42:00.197Z,39.7
2018-07-21T14:44:01.671Z,39.9
2018-07-21T14:46:00.836Z,40
2018-07-21T14:47:01.125Z,40.2
2018-07-21T14:48:01.371Z,40.5
2018-07-21T14:49:01.132Z,40.8
2018-07-21T14:50:02.226Z,41
2018-07-21T14:51:02.666Z,41.1
2018-07-21T14:52:02.382Z,41.2
2018-07-21T14:53:01.108Z,41.9
2018-07-21T14:54:01.284Z,43.1
2018-07-21T14:55:01.558Z,44.1
2018-07-21T14:56:02.472Z,45.1
2018-07-21T14:57:03.481Z,45.9
2018-07-21T14:58:04.448Z,46
2018-07-21T14:59:05.459Z,46.5
2018-07-21T15:00:06.402Z,47.1
2018-07-21T15:01:07.399Z,47.7
2018-07-21T15:02:07.625Z,48.3
2018-07-21T15:03:08.557Z,48.6
2018-07-21T15:04:09.599Z,48.1
2018-07-21T15:05:10.575Z,47.4
2018-07-21T15:06:10.563Z,46.6
2018-07-21T15:07:11.579Z,46.2
2018-07-21T15:09:13.552Z,46.9
2018-07-21T15:10:14.533Z,47.2
2018-07-21T15:11:15.547Z,47.7
2018-07-21T15:12:16.522Z,48.1
2018-07-21T15:13:17.217Z,48.5
2018-07-21T15:14:18.170Z,48.6
2018-07-21T15:15:19.146Z,48.7
2018-07-21T15:16:19.160Z,48.6
2018-07-21T15:17:19.226Z,48.5
2018-07-21T15:18:19.241Z,48.4
2018-07-21T15:19:19.387Z,48.3
2018-07-21T15:20:19.287Z,48.1
2018-07-21T15:21:19.511Z,47.7
2018-07-21T15:22:19.716Z,47.2
2018-07-21T15:23:19.898Z,46.7
2018-07-21T15:24:20.570Z,46.4
2018-07-21T15:25:20.241Z,46
2018-07-21T15:26:20.381Z,45.6
2018-07-21T15:27:20.558Z,45
2018-07-21T15:28:20.759Z,44.5
2018-07-21T15:29:21.195Z,44
2018-07-21T15:30:21.171Z,43.4
2018-07-21T15:31:21.386Z,42.7
2018-07-21T15:32:21.785Z,42.2
2018-07-21T15:33:21.639Z,41.7
2018-07-21T15:34:22.117Z,41.4
2018-07-21T15:35:22.032Z,41
2018-07-21T15:36:22.275Z,40.5
2018-07-21T15:37:22.502Z,40.2
2018-07-21T15:38:22.631Z,39.9
2018-07-21T15:39:22.936Z,39.5
2018-07-21T15:40:23.151Z,39.1
2018-07-21T15:41:23.209Z,38.9
2018-07-21T15:42:23.352Z,38.5
2018-07-21T15:43:23.557Z,38.2
2018-07-21T15:44:24.009Z,38
2018-07-21T15:45:23.986Z,37.6
2018-07-21T15:46:24.138Z,37.4
2018-07-21T15:47:24.330Z,37.1
2018-07-21T15:48:24.513Z,37
2018-07-21T15:49:24.784Z,36.7
2018-07-21T15:50:24.823Z,36.5
2018-07-21T15:51:25.017Z,36.4
2018-07-21T15:52:25.176Z,36.2
2018-07-21T15:53:25.384Z,36
2018-07-21T15:54:25.696Z,35.9
2018-07-21T15:55:25.773Z,35.7
2018-07-21T15:56:25.945Z,35.6
2018-07-21T15:57:26.123Z,35.5
2018-07-21T15:58:26.314Z,35.4
2018-07-21T15:59:26.693Z,35.2
2018-07-21T16:00:26.613Z,35.1
2018-07-21T16:01:26.813Z,35
2018-07-21T16:02:26.980Z,34.9
2018-07-21T16:03:27.154Z,34.7
2018-07-21T16:04:27.621Z,34.6
2018-07-21T16:05:27.521Z,34.5
2018-07-21T16:06:27.708Z,34.4
2018-07-21T16:08:28.048Z,34.2
2018-07-21T16:09:28.374Z,34.1
2018-07-21T16:10:28.450Z,34
2018-07-21T16:12:28.805Z,33.9
2018-07-21T16:14:29.281Z,33.7
2018-07-21T16:15:29.371Z,33.6
2018-07-21T16:17:29.733Z,33.5
2018-07-21T16:20:30.197Z,33.4
2018-07-21T16:23:30.791Z,33.2
2018-07-21T16:27:31.539Z,33.1
2018-07-21T16:31:32.306Z,33
2018-07-21T16:35:32.968Z,32.9
2018-07-21T16:37:33.381Z,33
2018-07-21T16:39:33.812Z,32.9
2018-07-21T16:43:34.419Z,33
2018-07-21T16:48:35.358Z,32.9
2018-07-21T16:50:35.726Z,32.7
2018-07-21T16:52:36.058Z,32.6
2018-07-21T17:01:37.771Z,32.7
2018-07-21T17:02:38.217Z,32.9
2018-07-21T17:06:39.200Z,32.6
2018-07-21T17:07:39.387Z,32.5
2018-07-21T17:08:39.578Z,32.2
2018-07-21T17:09:39.802Z,32.1
2018-07-21T17:10:39.854Z,32
2018-07-21T17:11:40.045Z,31.9
2018-07-21T17:12:40.274Z,31.8
2018-07-21T17:13:40.425Z,31.6
2018-07-21T17:14:40.787Z,31.5
2018-07-21T17:16:41.007Z,31.4
2018-07-21T17:18:41.391Z,31.5
2018-07-21T17:20:41.710Z,31.9
2018-07-21T17:21:41.881Z,32.2
2018-07-21T17:22:42.096Z,32.6
2018-07-21T17:23:42.352Z,32.7
2018-07-21T17:25:42.619Z,32.6
2018-07-21T17:26:42.777Z,32.4
2018-07-21T17:27:43.001Z,32.2
2018-07-21T17:28:43.136Z,32.1
2018-07-21T17:30:43.584Z,32
2018-07-21T17:31:43.722Z,31.9
2018-07-21T17:32:43.879Z,31.8
2018-07-21T17:33:44.059Z,31.6
2018-07-21T17:34:44.391Z,31.5
2018-07-21T17:35:44.417Z,31.4
2018-07-21T17:37:44.741Z,31.2
2018-07-21T17:38:44.921Z,31.1
2018-07-21T17:40:45.337Z,31
2018-07-21T17:41:45.490Z,30.9
2018-07-21T17:43:45.867Z,30.8
2018-07-21T17:44:46.269Z,30.6
2018-07-21T17:46:46.495Z,30.5
2018-07-21T17:48:46.822Z,30.4
2018-07-21T17:50:47.229Z,30.3
2018-07-21T17:52:47.618Z,30.1
2018-07-21T17:54:48.035Z,30
2018-07-21T17:56:48.298Z,29.9
2018-07-21T17:58:48.690Z,29.8
2018-07-21T18:00:49.019Z,29.6
2018-07-21T18:02:49.438Z,29.5
2018-07-21T18:03:49.620Z,29.4
2018-07-21T18:05:49.962Z,29.3
2018-07-21T18:07:50.338Z,29.1
2018-07-21T18:10:50.873Z,29
2018-07-21T18:12:51.220Z,28.9
2018-07-21T18:14:51.630Z,28.7
2018-07-21T18:16:51.944Z,28.6
2018-07-21T18:19:52.631Z,28.5
2018-07-21T18:20:53.486Z,28.4
2018-07-21T18:22:53.820Z,28.3
2018-07-21T18:24:54.170Z,28.1
2018-07-21T18:26:54.594Z,28
2018-07-21T18:30:55.331Z,27.9
2018-07-21T18:34:56.089Z,27.8
2018-07-21T18:38:56.793Z,27.6
2018-07-21T18:39:56.956Z,27.8
2018-07-21T18:40:57.127Z,27.6
2018-07-21T18:42:57.557Z,27.5
2018-07-21T18:45:58.045Z,27.4
2018-07-21T18:47:58.448Z,27.2
2018-07-21T18:50:59.007Z,27.1
2018-07-21T18:52:59.401Z,27
2018-07-21T18:55:59.835Z,26.9
2018-07-21T18:57:00.022Z,26.8
2018-07-21T18:59:01.578Z,26.6
2018-07-21T19:02:01.395Z,26.5
2018-07-21T19:04:01.548Z,26.4
2018-07-21T19:06:01.689Z,26.2
2018-07-21T19:08:02.160Z,26.1
2018-07-21T19:09:02.249Z,26
2018-07-21T19:12:03.126Z,25.9
2018-07-21T19:14:03.489Z,25.8
2018-07-21T19:15:03.670Z,25.6
2018-07-21T19:17:03.988Z,25.5
2018-07-21T19:20:05.005Z,25.4
2018-07-21T19:23:05.488Z,25.3
2018-07-21T19:25:05.828Z,25.1
2018-07-21T19:27:06.187Z,25
2018-07-21T19:29:06.546Z,24.9
2018-07-21T19:30:06.728Z,24.7
2018-07-21T19:32:08.011Z,24.6
2018-07-21T19:33:08.115Z,24.5
2018-07-21T19:35:08.440Z,24.4
2018-07-21T19:36:08.609Z,24.3
2018-07-21T19:37:08.791Z,24.1
2018-07-21T19:39:09.652Z,24
2018-07-21T19:40:09.864Z,23.9
2018-07-21T19:42:10.137Z,23.7
2018-07-21T19:43:10.305Z,23.6
2018-07-21T19:45:10.737Z,23.5
2018-07-21T19:47:11.090Z,23.4
2018-07-21T19:49:11.378Z,23.3
2018-07-21T19:52:11.911Z,23.1
2018-07-21T19:54:12.265Z,23
2018-07-21T19:57:12.853Z,22.9
2018-07-21T20:00:13.429Z,22.8
2018-07-21T20:02:13.775Z,22.6
2018-07-21T20:06:14.573Z,22.5
2018-07-21T20:09:15.046Z,22.4
2018-07-21T20:12:16.346Z,22.2
2018-07-21T20:16:17.878Z,22.1
2018-07-21T20:19:19.090Z,22
2018-07-21T20:23:20.531Z,21.9
2018-07-21T20:27:21.330Z,21.8
2018-07-21T20:30:21.952Z,21.6
2018-07-21T20:34:23.426Z,21.5
2018-07-21T20:36:23.857Z,21.4
2018-07-21T20:40:24.478Z,21.2
2018-07-21T20:51:26.437Z,21.1
2018-07-21T20:52:26.607Z,21.2
2018-07-21T20:56:27.531Z,21.1
2018-07-21T20:57:27.613Z,21.2
2018-07-21T21:16:31.099Z,21.1
2018-07-21T21:25:32.731Z,21
2018-07-21T21:32:33.982Z,20.9
2018-07-21T21:33:34.148Z,21
2018-07-21T21:37:34.902Z,20.9
2018-07-21T21:50:37.173Z,20.8
2018-07-21T22:07:40.361Z,20.6
2018-07-21T22:12:41.831Z,20.5
2018-07-21T22:13:42.025Z,20.6
2018-07-21T22:14:42.208Z,20.5
2018-07-21T22:30:45.126Z,20.6
2018-07-21T23:07:51.815Z,20.5
2018-07-21T23:10:52.494Z,20.4
2018-07-21T23:12:52.866Z,20.3
2018-07-21T23:14:53.229Z,20.1
2018-07-21T23:15:53.393Z,20.3
2018-07-21T23:16:53.578Z,20.1
2018-07-21T23:31:56.267Z,20.3
2018-07-21T23:33:56.604Z,20.1
2018-07-21T23:34:56.775Z,20.3
2018-07-21T23:38:57.501Z,20.1
2018-07-21T23:44:59.245Z,20
2018-07-21T23:46:59.554Z,19.9
2018-07-21T23:48:59.987Z,19.8
2018-07-21T23:52:01.926Z,19.6
2018-07-21T23:55:02.471Z,19.5
2018-07-21T23:57:01.344Z,19.4
2018-07-21T23:59:01.767Z,19.3
